Time;durP1;ratioP1;P1;durP2;ratioP2;P2;SDS_P1;SDS_P2;PMS_P1;PMS_P2;Temp;Humidity;BMP_temperature;BMP_pressure;BME280_temperature;BME280_humidity;BME280_pressure;Samples;Min_cycle;Max_cycle;Signal;HPM_P1;HPM_P2
2022/06/02 00:00:06;;;;;;;2.50;2.30;;;17.80;50.10;;;;;;5072964;28;20200;-79
2022/06/02 00:02:46;;;;;;;3.30;2.47;;;18.00;49.40;;;;;;5072588;28;20215;-78
2022/06/02 00:05:52;;;;;;;4.67;2.90;;;18.20;49.10;;;;;;5074239;28;20217;-79
2022/06/02 00:08:22;;;;;;;4.03;2.50;;;18.20;48.90;;;;;;5072204;28;20203;-79
2022/06/02 00:11:17;;;;;;;5.65;2.90;;;18.10;49.50;;;;;;5072073;28;20210;-79
2022/06/02 00:13:54;;;;;;;2.30;2.10;;;18.30;48.90;;;;;;5005990;28;20203;-79
2022/06/02 00:16:32;;;;;;;3.13;2.50;;;18.50;48.50;;;;;;5072902;28;20190;-77
2022/06/02 00:19:06;;;;;;;2.45;2.30;;;18.70;48.10;;;;;;5073857;28;20175;-79
2022/06/02 00:21:35;;;;;;;3.08;2.25;;;18.80;47.60;;;;;;5071375;28;20223;-80
2022/06/02 00:24:28;;;;;;;2.78;2.35;;;18.80;47.50;;;;;;5079555;28;20255;-79
2022/06/02 00:27:09;;;;;;;2.50;2.30;;;18.90;47.20;;;;;;5071845;28;20183;-79
2022/06/02 00:29:38;;;;;;;2.55;2.35;;;18.70;48.20;;;;;;5071776;28;20168;-79
2022/06/02 00:32:23;;;;;;;2.47;2.28;;;18.60;49.60;;;;;;5069539;28;20206;-80
2022/06/02 00:35:22;;;;;;;2.20;2.10;;;18.70;49.30;;;;;;5069773;28;20198;-78
2022/06/02 00:38:18;;;;;;;2.65;2.40;;;18.90;48.10;;;;;;5071076;28;20584;-79
2022/06/02 00:40:44;;;;;;;2.70;2.40;;;19.00;47.70;;;;;;5071561;28;20264;-79
2022/06/02 00:43:25;;;;;;;3.15;2.53;;;18.90;47.70;;;;;;5052419;28;20188;-79
2022/06/02 00:46:15;;;;;;;3.83;2.20;;;18.70;50.30;;;;;;5069497;28;20187;-78
2022/06/02 00:49:14;;;;;;;3.00;2.60;;;18.60;49.50;;;;;;5034199;28;20203;-80
2022/06/02 00:51:59;;;;;;;5.45;2.30;;;18.70;49.00;;;;;;5071773;28;20739;-79
2022/06/02 00:58:23;;;;;;;2.50;2.30;;;18.70;51.10;;;;;;5069908;28;20689;-79
2022/06/02 01:01:05;;;;;;;2.55;2.35;;;18.80;50.50;;;;;;5005596;28;20225;-79
2022/06/02 01:03:43;;;;;;;4.07;2.40;;;19.00;48.90;;;;;;5070165;28;20215;-80
2022/06/02 01:06:40;;;;;;;3.55;2.50;;;18.90;48.80;;;;;;5072924;28;20263;-80
2022/06/02 01:09:36;;;;;;;2.80;2.60;;;18.60;51.00;;;;;;5072340;28;20339;-79
2022/06/02 01:12:01;;;;;;;3.88;2.35;;;18.40;51.40;;;;;;5069598;28;20219;-79
2022/06/02 01:14:30;;;;;;;3.15;2.47;;;18.40;50.90;;;;;;5072863;28;20201;-80
2022/06/02 01:17:32;;;;;;;2.70;2.50;;;18.50;50.80;;;;;;5068657;28;20211;-80
2022/06/02 01:20:16;;;;;;;3.20;2.40;;;18.70;50.80;;;;;;5076271;28;20639;-79
2022/06/02 01:22:45;;;;;;;2.17;2.08;;;18.60;51.10;;;;;;5074686;28;20207;-79
2022/06/02 01:25:39;;;;;;;2.55;2.35;;;18.50;52.30;;;;;;5066512;28;20192;-80
2022/06/02 01:28:07;;;;;;;2.63;2.42;;;18.60;50.40;;;;;;5074779;28;20390;-80
2022/06/02 01:30:50;;;;;;;2.80;2.60;;;18.60;50.20;;;;;;5074880;28;20237;-79
2022/06/02 01:33:22;;;;;;;2.80;2.60;;;18.50;50.40;;;;;;5075259;28;20364;-79
2022/06/02 01:36:08;;;;;;;3.13;2.53;;;18.40;51.90;;;;;;5075135;28;20202;-79
2022/06/02 01:38:48;;;;;;;3.30;2.28;;;18.50;51.70;;;;;;5076088;28;20199;-78
2022/06/02 01:41:37;;;;;;;2.67;2.47;;;18.60;51.00;;;;;;5076886;28;20211;-79
2022/06/02 01:44:16;;;;;;;2.75;2.38;;;18.60;50.50;;;;;;5044924;28;20283;-79
2022/06/02 01:46:53;;;;;;;4.10;2.90;;;18.80;50.60;;;;;;5058459;28;20208;-77
2022/06/02 01:49:49;;;;;;;3.97;3.00;;;18.90;49.70;;;;;;5077547;28;20179;-80
2022/06/02 01:52:30;;;;;;;2.63;2.42;;;18.80;49.50;;;;;;5076657;28;20263;-79
2022/06/02 01:55:14;;;;;;;2.63;2.42;;;18.70;50.10;;;;;;5075802;28;20188;-80
2022/06/02 01:57:43;;;;;;;3.72;2.58;;;18.60;51.60;;;;;;5074191;28;20188;-79
2022/06/02 02:00:15;;;;;;;2.85;2.50;;;18.20;54.20;;;;;;5075477;28;20180;-78
2022/06/02 02:02:58;;;;;;;2.93;2.43;;;17.90;54.50;;;;;;5077128;28;20244;-79
2022/06/02 02:05:48;;;;;;;4.85;2.70;;;17.60;54.60;;;;;;5081635;28;20189;-80
2022/06/02 02:08:51;;;;;;;3.53;3.05;;;17.50;54.70;;;;;;5075885;28;20709;-80
2022/06/02 02:11:36;;;;;;;2.77;2.50;;;17.50;55.20;;;;;;5076078;28;20247;-79
2022/06/02 02:14:30;;;;;;;2.73;2.50;;;17.10;57.80;;;;;;5075303;28;20210;-80
2022/06/02 02:17:17;;;;;;;3.17;2.53;;;17.00;57.60;;;;;;5071767;28;20201;-79
2022/06/02 02:20:04;;;;;;;3.03;2.50;;;16.90;57.50;;;;;;5082754;28;20205;-79
2022/06/02 02:22:51;;;;;;;2.97;2.47;;;17.10;57.20;;;;;;5077396;28;20242;-80
2022/06/02 02:25:21;;;;;;;2.87;2.50;;;17.20;57.20;;;;;;5074418;28;20182;-80
2022/06/02 02:28:06;;;;;;;3.00;2.70;;;17.20;57.30;;;;;;5075079;28;20258;-78
2022/06/02 02:30:34;;;;;;;2.97;2.47;;;17.10;58.30;;;;;;5071166;28;20214;-79
2022/06/02 02:33:19;;;;;;;4.20;2.40;;;16.90;59.00;;;;;;5076294;28;20187;-79
2022/06/02 02:35:56;;;;;;;2.60;2.40;;;17.10;57.90;;;;;;5075300;28;20194;-79
2022/06/02 02:38:31;;;;;;;3.90;2.93;;;17.20;58.20;;;;;;5078653;28;20295;-79
2022/06/02 02:41:01;;;;;;;2.70;2.50;;;17.30;56.80;;;;;;5075031;28;20203;-77
2022/06/02 02:44:04;;;;;;;2.43;2.30;;;17.20;57.50;;;;;;5056705;28;20527;-79
2022/06/02 02:46:55;;;;;;;4.90;2.70;;;17.30;57.60;;;;;;5012879;28;20280;-78
2022/06/02 02:49:30;;;;;;;4.33;2.80;;;17.50;57.20;;;;;;5074686;28;20179;-77
2022/06/02 02:52:04;;;;;;;2.90;2.70;;;17.50;56.20;;;;;;5073179;28;20214;-78
2022/06/02 02:54:59;;;;;;;2.87;2.67;;;17.40;56.60;;;;;;5071146;28;20197;-81
2022/06/02 02:57:31;;;;;;;3.17;2.50;;;17.50;56.50;;;;;;5074621;28;20170;-77
2022/06/02 03:00:12;;;;;;;2.77;2.57;;;17.40;57.40;;;;;;5074881;28;20269;-77
2022/06/02 03:03:07;;;;;;;2.80;2.60;;;17.60;57.10;;;;;;5073605;28;20221;-77
2022/06/02 03:06:11;;;;;;;2.97;2.77;;;17.60;56.70;;;;;;5064105;28;20190;-79
2022/06/02 03:08:55;;;;;;;3.03;2.80;;;17.60;55.80;;;;;;5075400;28;20265;-78
2022/06/02 03:11:39;;;;;;;3.23;2.97;;;17.60;56.20;;;;;;5073662;28;20210;-78
2022/06/02 03:14:29;;;;;;;3.27;2.90;;;17.50;55.50;;;;;;5081164;28;20184;-78
2022/06/02 03:17:10;;;;;;;3.10;2.90;;;17.40;55.90;;;;;;5059572;28;20180;-77
2022/06/02 03:19:49;;;;;;;4.53;2.77;;;17.40;55.90;;;;;;5068056;28;20668;-77
2022/06/02 03:22:32;;;;;;;3.67;2.83;;;17.40;56.20;;;;;;5070423;28;20209;-77
2022/06/02 03:25:04;;;;;;;4.60;3.23;;;17.40;56.20;;;;;;5065682;28;20191;-77
2022/06/02 03:27:53;;;;;;;5.27;3.27;;;17.00;56.60;;;;;;5066617;28;20783;-80
2022/06/02 03:30:21;;;;;;;3.50;3.20;;;17.00;56.80;;;;;;5064550;28;20200;-77
2022/06/02 03:32:59;;;;;;;3.60;3.30;;;16.90;56.80;;;;;;5071320;28;20228;-77
2022/06/02 03:35:44;;;;;;;3.80;3.50;;;16.80;56.80;;;;;;5068318;28;20191;-79
2022/06/02 03:38:22;;;;;;;3.50;3.17;;;16.80;57.10;;;;;;5061109;28;20186;-77
2022/06/02 03:41:14;;;;;;;3.33;3.03;;;16.90;56.50;;;;;;5063499;28;20219;-79
2022/06/02 03:43:53;;;;;;;4.43;3.07;;;16.90;56.80;;;;;;5070376;28;20203;-78
2022/06/02 03:46:39;;;;;;;3.83;3.10;;;16.80;56.70;;;;;;5070985;28;20263;-78
2022/06/02 03:49:22;;;;;;;4.00;3.70;;;16.70;57.30;;;;;;5070519;28;20571;-78
2022/06/02 03:52:15;;;;;;;3.80;2.93;;;16.70;58.50;;;;;;5068050;28;20208;-78
2022/06/02 03:55:11;;;;;;;3.17;2.97;;;16.70;57.80;;;;;;5067628;28;20223;-76
2022/06/02 03:58:08;;;;;;;3.60;3.30;;;16.70;58.30;;;;;;5070314;28;20196;-81
2022/06/02 04:00:58;;;;;;;5.43;3.53;;;16.70;58.10;;;;;;5070270;28;20208;-77
2022/06/02 04:03:57;;;;;;;3.73;3.03;;;16.60;59.00;;;;;;5069415;28;20251;-77
2022/06/02 04:06:53;;;;;;;3.93;3.07;;;16.70;58.10;;;;;;5068464;28;20194;-78
2022/06/02 04:09:48;;;;;;;3.33;3.03;;;16.80;58.00;;;;;;5067325;28;20180;-76
2022/06/02 04:15:48;;;;;;;6.30;3.50;;;16.60;58.40;;;;;;5068834;28;20198;-82
2022/06/02 04:18:35;;;;;;;5.43;3.10;;;16.50;59.20;;;;;;5029633;28;20201;-80
2022/06/02 04:21:18;;;;;;;4.20;3.20;;;16.30;60.10;;;;;;5066528;28;20271;-77
2022/06/02 04:24:33;;;;;;;5.97;3.40;;;16.30;60.30;;;;;;5065768;28;20200;-78
2022/06/02 04:27:32;;;;;;;4.40;3.47;;;16.40;59.70;;;;;;5063334;28;20677;-78
2022/06/02 04:30:16;;;;;;;4.53;3.43;;;16.40;59.80;;;;;;5061919;28;20200;-81
2022/06/02 04:33:08;;;;;;;4.00;3.37;;;16.30;61.10;;;;;;5067607;28;20214;-79
2022/06/02 04:35:51;;;;;;;3.53;3.10;;;16.10;61.00;;;;;;5065374;28;20184;-77
2022/06/02 04:38:35;;;;;;;3.80;3.40;;;16.00;61.90;;;;;;5069805;28;20559;-77
2022/06/02 04:41:07;;;;;;;3.93;3.53;;;16.00;62.10;;;;;;5062613;28;20216;-77
2022/06/02 04:44:03;;;;;;;7.27;3.30;;;15.80;62.60;;;;;;5062949;28;20195;-78
2022/06/02 04:46:39;;;;;;;3.90;3.50;;;15.60;62.90;;;;;;5013849;28;20558;-76
2022/06/02 04:49:21;;;;;;;6.57;3.80;;;15.60;63.60;;;;;;5069274;28;20650;-78
2022/06/02 04:52:11;;;;;;;3.93;3.40;;;15.60;63.80;;;;;;5068730;28;20221;-77
2022/06/02 04:55:06;;;;;;;6.00;3.40;;;15.60;63.40;;;;;;5065636;28;20187;-78
2022/06/02 04:58:03;;;;;;;5.23;3.30;;;15.50;63.50;;;;;;5068416;28;20586;-77
2022/06/02 05:00:37;;;;;;;4.50;3.57;;;15.60;63.10;;;;;;5071374;28;20214;-77
2022/06/02 05:03:15;;;;;;;7.33;3.50;;;15.60;62.80;;;;;;5072240;28;20210;-76
2022/06/02 05:06:03;;;;;;;5.37;3.57;;;15.70;62.60;;;;;;5075687;28;20189;-79
2022/06/02 05:09:23;;;;;;;4.33;3.37;;;15.70;63.00;;;;;;5080041;28;20184;-79
2022/06/02 05:12:13;;;;;;;4.97;3.47;;;15.80;62.80;;;;;;4984762;28;20205;-79
2022/06/02 05:15:16;;;;;;;4.63;3.57;;;15.70;62.80;;;;;;5079875;28;20221;-79
2022/06/02 05:17:59;;;;;;;4.27;3.70;;;15.80;62.50;;;;;;5079292;28;20212;-79
2022/06/02 05:20:55;;;;;;;6.13;3.70;;;15.90;62.50;;;;;;5076818;28;20218;-78
2022/06/02 05:23:42;;;;;;;4.20;3.80;;;15.80;62.40;;;;;;5075144;28;20200;-78
2022/06/02 05:26:19;;;;;;;4.77;3.63;;;15.90;62.60;;;;;;5081019;28;20547;-78
2022/06/02 05:29:06;;;;;;;4.30;3.47;;;15.70;62.90;;;;;;5077443;28;20194;-79
2022/06/02 05:32:00;;;;;;;7.30;3.93;;;15.80;62.00;;;;;;5072283;28;20356;-78
2022/06/02 05:35:12;;;;;;;4.77;3.47;;;16.00;61.40;;;;;;5067847;28;20189;-78
2022/06/02 05:38:09;;;;;;;4.67;3.20;;;16.10;60.80;;;;;;5006656;28;20788;-79
2022/06/02 05:40:44;;;;;;;3.73;3.43;;;16.10;60.80;;;;;;5016940;28;20216;-76
2022/06/02 05:43:29;;;;;;;5.43;3.63;;;16.00;60.90;;;;;;5075112;28;20253;-79
2022/06/02 05:46:15;;;;;;;5.17;3.40;;;16.00;60.50;;;;;;5071280;28;20227;-78
2022/06/02 05:49:07;;;;;;;4.87;3.70;;;16.00;60.40;;;;;;5075882;28;20222;-78
2022/06/02 05:52:04;;;;;;;5.67;3.43;;;16.10;60.40;;;;;;5077908;28;20202;-80
2022/06/02 05:54:55;;;;;;;4.47;3.57;;;16.20;60.10;;;;;;5072061;28;20175;-79
2022/06/02 05:57:29;;;;;;;3.57;3.23;;;16.40;60.30;;;;;;5070568;28;20186;-80
2022/06/02 06:00:08;;;;;;;3.73;3.20;;;16.40;59.40;;;;;;5070655;28;20183;-77
2022/06/02 06:02:52;;;;;;;4.20;3.40;;;16.50;59.50;;;;;;5076639;28;20673;-77
2022/06/02 06:05:55;;;;;;;4.00;3.70;;;16.60;58.80;;;;;;5078249;28;20672;-79
2022/06/02 06:08:30;;;;;;;4.00;3.60;;;16.50;59.50;;;;;;5073237;28;20187;-76
2022/06/02 06:11:08;;;;;;;3.90;3.53;;;16.60;59.00;;;;;;5075583;28;20209;-78
2022/06/02 06:13:34;;;;;;;5.80;3.30;;;16.70;58.90;;;;;;5075655;28;20198;-77
2022/06/02 06:16:32;;;;;;;3.40;3.10;;;16.80;58.70;;;;;;5070463;28;20581;-80
2022/06/02 06:19:20;;;;;;;3.40;3.10;;;16.80;58.40;;;;;;5076955;28;20308;-79
2022/06/02 06:22:00;;;;;;;3.67;3.00;;;16.80;58.00;;;;;;5077722;28;20204;-78
2022/06/02 06:24:40;;;;;;;3.60;2.70;;;17.00;57.30;;;;;;5076202;28;20254;-76
2022/06/02 06:27:30;;;;;;;3.57;3.00;;;17.00;57.30;;;;;;5058624;28;20680;-79
2022/06/02 06:30:10;;;;;;;4.60;3.10;;;17.20;56.80;;;;;;5077117;28;20172;-77
2022/06/02 06:32:52;;;;;;;3.70;3.00;;;17.20;56.20;;;;;;5058640;28;20695;-78
2022/06/02 06:35:28;;;;;;;5.43;3.20;;;17.20;57.00;;;;;;5077274;28;20241;-78
2022/06/02 06:38:06;;;;;;;3.93;2.93;;;17.20;56.80;;;;;;5058719;28;20570;-80
2022/06/02 06:40:49;;;;;;;3.43;2.80;;;17.20;56.90;;;;;;5071905;28;20203;-79
2022/06/02 06:43:26;;;;;;;6.33;3.40;;;17.10;56.70;;;;;;5075527;28;20310;-79
2022/06/02 06:46:12;;;;;;;3.57;2.90;;;17.30;55.60;;;;;;5075604;28;20179;-78
2022/06/02 06:48:45;;;;;;;6.63;2.80;;;17.30;53.80;;;;;;5076456;28;20175;-81
2022/06/02 06:51:23;;;;;;;6.23;2.90;;;17.40;53.80;;;;;;5077084;28;20231;-79
2022/06/02 06:53:48;;;;;;;3.87;2.77;;;17.60;53.50;;;;;;5078374;28;20792;-78
2022/06/02 06:56:21;;;;;;;5.43;2.80;;;17.70;52.50;;;;;;5076569;28;20182;-79
2022/06/02 06:59:00;;;;;;;3.37;2.70;;;17.90;52.20;;;;;;5075662;28;20183;-80
2022/06/02 07:01:32;;;;;;;3.17;2.70;;;18.20;51.00;;;;;;5076671;28;20220;-79
2022/06/02 07:04:24;;;;;;;6.43;3.37;;;18.20;51.10;;;;;;5075885;28;20187;-78
2022/06/02 07:06:56;;;;;;;4.47;3.10;;;18.30;50.90;;;;;;5075244;28;20194;-80
2022/06/02 07:09:50;;;;;;;3.13;2.83;;;18.10;50.60;;;;;;5079869;28;20199;-77
2022/06/02 07:15:30;;;;;;;3.10;2.47;;;18.20;51.10;;;;;;5074955;28;20197;-78
2022/06/02 07:18:25;;;;;;;3.80;2.70;;;18.40;50.20;;;;;;5073390;28;20233;-79
2022/06/02 07:21:04;;;;;;;2.73;2.40;;;18.40;50.60;;;;;;5076048;28;20299;-81
2022/06/02 07:24:03;;;;;;;2.50;2.30;;;18.60;51.00;;;;;;5076104;28;20619;-77
2022/06/02 07:26:32;;;;;;;2.43;2.17;;;18.60;47.90;;;;;;5076960;28;20199;-80
2022/06/02 07:29:03;;;;;;;3.90;2.30;;;18.60;45.60;;;;;;5076418;28;20264;-79
2022/06/02 07:31:50;;;;;;;3.17;2.30;;;18.60;45.50;;;;;;5076183;28;20211;-80
2022/06/02 07:34:38;;;;;;;2.97;2.67;;;18.60;45.90;;;;;;5077613;28;20243;-80
2022/06/02 07:37:34;;;;;;;2.30;1.97;;;18.60;45.70;;;;;;5083195;28;20195;-78
2022/06/02 07:40:26;;;;;;;2.80;2.50;;;18.70;45.00;;;;;;5086253;28;20226;-79
2022/06/02 07:43:30;;;;;;;3.07;2.30;;;18.80;44.50;;;;;;5078259;28;20203;-77
2022/06/02 07:46:19;;;;;;;2.43;2.30;;;18.80;44.50;;;;;;5076769;28;20260;-80
2022/06/02 07:49:40;;;;;;;2.63;2.43;;;18.90;45.00;;;;;;5073985;28;20191;-78
2022/06/02 07:52:26;;;;;;;2.50;2.13;;;19.10;43.80;;;;;;5051179;28;20233;-80
2022/06/02 07:55:13;;;;;;;2.75;2.55;;;19.40;42.80;;;;;;5075096;28;20221;-79
2022/06/02 07:58:03;;;;;;;3.10;2.42;;;19.60;41.00;;;;;;5074265;28;20190;-80
2022/06/02 08:00:39;;;;;;;2.33;2.13;;;19.60;41.40;;;;;;5075153;28;20199;-80
2022/06/02 08:03:29;;;;;;;4.93;2.60;;;19.70;41.60;;;;;;5073750;28;20214;-80
2022/06/02 08:06:05;;;;;;;3.03;2.30;;;19.90;41.00;;;;;;5073908;28;20182;-81
2022/06/02 08:08:30;;;;;;;4.32;1.95;;;20.10;39.20;;;;;;5074946;28;20187;-79
2022/06/02 08:10:59;;;;;;;2.08;1.98;;;20.00;39.30;;;;;;5075464;28;20741;-81
2022/06/02 08:14:02;;;;;;;2.25;2.15;;;20.00;39.10;;;;;;5075521;28;20539;-79
2022/06/02 08:17:01;;;;;;;3.35;2.10;;;19.70;39.30;;;;;;5074975;28;20282;-80
2022/06/02 08:20:09;;;;;;;2.00;1.90;;;20.00;38.70;;;;;;5073554;28;20188;-81
2022/06/02 08:22:50;;;;;;;2.20;2.00;;;20.20;38.00;;;;;;5074701;28;20233;-79
2022/06/02 08:25:22;;;;;;;2.67;2.13;;;20.40;37.90;;;;;;5072192;28;20191;-88
2022/06/02 08:28:06;;;;;;;3.83;2.03;;;20.60;37.50;;;;;;5075500;28;20218;-80
2022/06/02 08:30:50;;;;;;;4.80;2.00;;;20.60;37.40;;;;;;5075907;28;20277;-80
2022/06/02 08:33:33;;;;;;;3.60;2.13;;;20.60;36.60;;;;;;5075492;28;20191;-80
2022/06/02 08:36:22;;;;;;;2.25;2.15;;;20.40;37.40;;;;;;5075833;28;20222;-81
2022/06/02 08:39:13;;;;;;;5.25;2.15;;;20.60;37.90;;;;;;5075192;28;20534;-81
2022/06/02 08:42:16;;;;;;;2.25;2.05;;;20.50;38.60;;;;;;5075885;28;20211;-80
2022/06/02 08:45:24;;;;;;;3.53;2.63;;;20.80;38.10;;;;;;5075697;28;20265;-85
2022/06/02 08:48:03;;;;;;;5.05;2.15;;;20.80;37.00;;;;;;5075267;28;20202;-79
2022/06/02 08:50:58;;;;;;;2.10;2.00;;;20.90;37.30;;;;;;5074810;28;20820;-82
2022/06/02 08:54:01;;;;;;;2.30;2.15;;;21.10;37.60;;;;;;5028938;28;20196;-82
2022/06/02 08:56:36;;;;;;;3.80;2.30;;;21.20;37.00;;;;;;5076150;28;20186;-82
2022/06/02 08:59:20;;;;;;;14.25;2.70;;;21.00;38.40;;;;;;5076788;28;20186;-83
2022/06/02 09:02:19;;;;;;;2.25;2.10;;;21.00;37.50;;;;;;5076991;28;20830;-81
2022/06/02 09:05:23;;;;;;;2.45;2.28;;;21.10;37.00;;;;;;5085831;28;20191;-80
2022/06/02 09:08:10;;;;;;;2.50;2.30;;;21.20;36.40;;;;;;5077985;28;20171;-82
2022/06/02 09:10:57;;;;;;;2.72;2.08;;;21.50;36.70;;;;;;5077292;28;20212;-80
2022/06/02 09:13:49;;;;;;;6.07;2.40;;;21.50;37.00;;;;;;5077523;28;20179;-83
2022/06/02 09:16:19;;;;;;;4.28;2.38;;;21.60;37.90;;;;;;5076936;28;20205;-83
2022/06/02 09:18:51;;;;;;;3.50;2.08;;;21.90;36.60;;;;;;5078386;28;20190;-81
2022/06/02 09:21:24;;;;;;;3.13;2.67;;;22.10;35.70;;;;;;5058635;28;20230;-83
2022/06/02 09:24:14;;;;;;;2.50;2.30;;;22.10;35.30;;;;;;5077679;28;20690;-83
2022/06/02 09:27:14;;;;;;;3.55;2.22;;;22.20;35.30;;;;;;5059038;28;20190;-81
2022/06/02 09:29:49;;;;;;;5.43;2.30;;;22.30;35.20;;;;;;5076762;28;20183;-82
2022/06/02 09:32:44;;;;;;;2.70;2.40;;;22.30;35.90;;;;;;5076894;28;20272;-81
2022/06/02 09:35:22;;;;;;;2.60;2.20;;;22.50;35.70;;;;;;5076598;28;20272;-80
2022/06/02 09:38:32;;;;;;;2.40;2.15;;;22.60;35.40;;;;;;5079420;28;20179;-81
2022/06/02 09:41:13;;;;;;;2.33;1.95;;;22.60;35.70;;;;;;4973903;28;20221;-81
2022/06/02 09:44:04;;;;;;;2.10;1.90;;;22.60;34.50;;;;;;4973173;28;20229;-81
2022/06/02 09:46:51;;;;;;;2.30;2.20;;;22.80;35.60;;;;;;5049610;28;20206;-84
2022/06/02 09:49:42;;;;;;;3.05;2.22;;;23.20;34.20;;;;;;5079882;28;20182;-82
2022/06/02 09:52:20;;;;;;;2.42;2.22;;;23.40;33.40;;;;;;5078901;28;20230;-84
2022/06/02 09:55:11;;;;;;;2.78;2.50;;;23.30;34.00;;;;;;5079822;28;20186;-82
2022/06/02 09:57:58;;;;;;;2.30;2.10;;;23.20;34.00;;;;;;5078552;28;20192;-82
2022/06/02 10:00:53;;;;;;;2.33;2.10;;;23.10;33.20;;;;;;5080170;28;20222;-81
2022/06/02 10:03:44;;;;;;;2.40;2.30;;;23.30;34.40;;;;;;5077747;28;20241;-82
2022/06/02 10:06:30;;;;;;;2.42;2.17;;;23.60;32.20;;;;;;5077596;28;20187;-81
2022/06/02 10:09:28;;;;;;;2.67;1.90;;;23.80;32.70;;;;;;5079508;28;20211;-84
2022/06/02 10:12:54;;;;;;;2.50;2.40;;;24.10;32.60;;;;;;5081235;28;20211;-82
2022/06/02 10:15:06;;;;;;;2.85;2.17;;;24.20;31.60;;;;;;5080335;28;20198;-82
2022/06/02 10:18:00;;;;;;;2.40;2.20;;;24.30;32.00;;;;;;5080775;28;20183;-82
2022/06/02 10:20:46;;;;;;;2.28;2.10;;;24.40;31.60;;;;;;5079948;28;20215;-82
2022/06/02 10:24:03;;;;;;;3.95;2.47;;;24.30;31.70;;;;;;5078553;28;20215;-82
2022/06/02 10:26:53;;;;;;;5.30;2.28;;;24.00;32.10;;;;;;5077413;28;20188;-81
2022/06/02 10:29:50;;;;;;;4.95;2.30;;;24.00;31.70;;;;;;5077412;28;20222;-82
2022/06/02 10:32:35;;;;;;;2.45;1.90;;;23.90;33.00;;;;;;5076354;28;20269;-81
2022/06/02 10:35:09;;;;;;;2.70;2.10;;;24.30;32.00;;;;;;5073118;28;20211;-82
2022/06/02 10:38:12;;;;;;;2.17;2.08;;;24.20;32.10;;;;;;5073525;28;20262;-82
2022/06/02 10:40:50;;;;;;;3.67;2.22;;;24.20;31.50;;;;;;5073001;28;20856;-81
2022/06/02 10:43:36;;;;;;;2.75;2.50;;;24.60;31.40;;;;;;5055401;28;20199;-82
2022/06/02 10:46:20;;;;;;;2.28;2.08;;;24.50;31.40;;;;;;5074005;28;20180;-82
2022/06/02 10:49:23;;;;;;;2.83;2.20;;;24.90;30.70;;;;;;5074164;28;20254;-83
2022/06/02 10:52:13;;;;;;;2.13;2.00;;;25.10;30.40;;;;;;5073683;28;20535;-82
2022/06/02 10:54:53;;;;;;;2.60;2.20;;;25.20;29.80;;;;;;5072798;28;20570;-81
2022/06/02 10:57:25;;;;;;;3.95;2.22;;;25.10;30.00;;;;;;5074439;28;20190;-82
2022/06/02 11:00:20;;;;;;;3.05;1.85;;;25.10;30.00;;;;;;5080423;28;20187;-81
2022/06/02 11:03:16;;;;;;;2.10;2.00;;;24.80;31.00;;;;;;5072318;28;20199;-82
2022/06/02 11:06:07;;;;;;;2.30;2.20;;;24.90;31.10;;;;;;5072235;28;20285;-81
2022/06/02 11:08:57;;;;;;;2.78;2.28;;;25.20;29.90;;;;;;5073437;28;20180;-82
2022/06/02 11:11:33;;;;;;;3.80;2.20;;;25.60;30.00;;;;;;5072506;28;20222;-82
2022/06/02 11:14:19;;;;;;;2.30;2.20;;;26.10;29.60;;;;;;5077817;28;20663;-83
2022/06/02 11:17:08;;;;;;;3.45;2.35;;;26.20;29.50;;;;;;5075511;28;20199;-82
2022/06/02 11:19:56;;;;;;;2.90;2.00;;;26.50;28.80;;;;;;5061708;28;20358;-83
2022/06/02 11:22:57;;;;;;;4.18;2.45;;;26.70;28.60;;;;;;5047212;28;20218;-82
2022/06/02 11:25:35;;;;;;;2.25;2.10;;;26.50;28.80;;;;;;5056668;28;20894;-82
2022/06/02 11:28:28;;;;;;;2.25;1.98;;;26.50;28.80;;;;;;5073316;28;20270;-83
2022/06/02 11:31:31;;;;;;;2.55;2.30;;;26.30;29.40;;;;;;5072998;28;20211;-82
2022/06/02 11:34:00;;;;;;;2.45;2.17;;;26.40;29.00;;;;;;5074622;28;20190;-82
2022/06/02 11:36:47;;;;;;;2.45;2.25;;;25.80;29.20;;;;;;5073352;28;20247;-83
2022/06/02 11:39:46;;;;;;;4.57;2.30;;;25.60;29.80;;;;;;5072464;28;20229;-82
2022/06/02 11:42:34;;;;;;;5.00;2.50;;;25.90;29.70;;;;;;5070716;28;20653;-82
2022/06/02 11:45:27;;;;;;;2.28;2.17;;;26.40;29.30;;;;;;5070166;28;20175;-82
2022/06/02 11:47:56;;;;;;;6.03;2.65;;;26.60;29.00;;;;;;5055315;28;20191;-81
2022/06/02 11:50:40;;;;;;;2.95;2.42;;;26.80;29.80;;;;;;5071030;28;20253;-81
2022/06/02 11:53:25;;;;;;;2.90;2.55;;;26.90;29.00;;;;;;5070596;28;20266;-80
2022/06/02 11:55:56;;;;;;;4.35;2.45;;;27.20;28.40;;;;;;5072970;28;20180;-82
2022/06/02 11:58:59;;;;;;;2.92;2.53;;;27.60;28.20;;;;;;5072577;28;20241;-82
2022/06/02 12:01:47;;;;;;;2.50;2.40;;;27.20;28.40;;;;;;5071107;28;20207;-82
2022/06/02 12:04:46;;;;;;;5.47;2.25;;;26.70;29.90;;;;;;5053797;28;20188;-82
2022/06/02 12:08:01;;;;;;;4.68;2.50;;;26.50;29.80;;;;;;5050714;28;20180;-83
2022/06/02 12:11:04;;;;;;;3.75;2.50;;;26.70;28.80;;;;;;5053049;28;20685;-83
2022/06/02 12:13:47;;;;;;;2.60;2.40;;;26.60;29.40;;;;;;5072853;28;20187;-82
2022/06/02 12:16:44;;;;;;;3.95;2.40;;;26.60;29.50;;;;;;5071468;28;20254;-83
2022/06/02 12:19:20;;;;;;;4.43;2.38;;;26.40;29.50;;;;;;5076341;28;20183;-82
2022/06/02 12:22:00;;;;;;;2.22;2.03;;;26.30;29.50;;;;;;5075084;28;20207;-82
2022/06/02 12:24:31;;;;;;;3.33;2.30;;;26.10;30.00;;;;;;5078676;28;20308;-83
2022/06/02 12:27:27;;;;;;;2.53;2.17;;;25.60;30.30;;;;;;5075418;28;20180;-81
2022/06/02 12:30:23;;;;;;;4.13;2.38;;;25.40;31.30;;;;;;5055602;28;20253;-80
2022/06/02 12:33:07;;;;;;;2.05;1.95;;;25.30;31.60;;;;;;5072301;28;20257;-80
2022/06/02 12:36:11;;;;;;;3.58;2.40;;;25.20;31.40;;;;;;5070675;28;20184;-80
2022/06/02 12:38:52;;;;;;;2.42;2.28;;;25.50;31.70;;;;;;5071196;28;20194;-79
2022/06/02 12:41:39;;;;;;;2.40;2.20;;;25.60;31.80;;;;;;5072421;28;20203;-79
2022/06/02 12:44:38;;;;;;;2.53;2.33;;;25.40;32.00;;;;;;5069614;28;20190;-79
2022/06/02 12:48:01;;;;;;;2.72;2.13;;;25.70;30.90;;;;;;5066974;28;20659;-79
2022/06/02 12:51:04;;;;;;;4.65;2.42;;;25.60;30.60;;;;;;4970725;28;20246;-79
2022/06/02 12:54:05;;;;;;;5.22;2.20;;;25.30;31.50;;;;;;4955675;28;20230;-79
2022/06/02 12:56:43;;;;;;;2.95;2.40;;;25.60;31.30;;;;;;5051485;28;20214;-80
2022/06/02 12:59:14;;;;;;;2.72;2.28;;;26.50;30.20;;;;;;5075914;28;20186;-78
2022/06/02 13:01:48;;;;;;;2.65;2.13;;;26.50;30.00;;;;;;5072192;28;20221;-79
2022/06/02 13:04:14;;;;;;;3.20;2.25;;;26.70;29.80;;;;;;5070695;28;20192;-80
2022/06/02 13:06:43;;;;;;;3.80;2.35;;;26.80;29.40;;;;;;5072288;28;20550;-79
2022/06/02 13:09:26;;;;;;;3.00;2.25;;;26.90;29.30;;;;;;5072834;28;20179;-79
2022/06/02 13:12:28;;;;;;;2.65;2.40;;;27.40;28.90;;;;;;5071231;28;20210;-79
2022/06/02 13:15:17;;;;;;;2.28;2.17;;;28.10;28.20;;;;;;5074295;28;20179;-78
2022/06/02 13:17:57;;;;;;;4.25;2.90;;;28.50;28.00;;;;;;5071829;28;20241;-80
2022/06/02 13:20:41;;;;;;;4.15;2.35;;;28.30;28.30;;;;;;5074230;28;20210;-79
2022/06/02 13:23:23;;;;;;;3.97;2.70;;;28.10;28.50;;;;;;5077373;28;20207;-80
2022/06/02 13:26:33;;;;;;;5.38;2.17;;;28.20;28.20;;;;;;5076991;28;20177;-77
2022/06/02 13:29:24;;;;;;;2.55;2.35;;;28.50;27.50;;;;;;5078994;28;20213;-79
2022/06/02 13:31:55;;;;;;;4.03;2.50;;;28.20;27.80;;;;;;5080807;28;20200;-79
2022/06/02 13:34:32;;;;;;;2.60;2.40;;;28.40;28.20;;;;;;5082101;28;20186;-80
2022/06/02 13:37:10;;;;;;;3.00;2.65;;;28.10;28.70;;;;;;5081401;28;20182;-80
2022/06/02 13:40:07;;;;;;;3.97;2.60;;;28.10;28.40;;;;;;5079932;28;20191;-79
2022/06/02 13:43:06;;;;;;;3.83;2.33;;;28.00;28.20;;;;;;5082171;28;20202;-79
2022/06/02 13:46:01;;;;;;;2.53;2.33;;;27.60;28.80;;;;;;5080176;28;20179;-80
2022/06/02 13:49:04;;;;;;;2.58;2.30;;;27.70;28.60;;;;;;5079367;28;20183;-81
2022/06/02 13:51:53;;;;;;;2.55;2.45;;;27.60;28.50;;;;;;5079258;28;20199;-79
2022/06/02 13:57:32;;;;;;;2.42;2.20;;;28.10;28.40;;;;;;5079829;28;20253;-79
2022/06/02 14:00:29;;;;;;;2.50;2.30;;;27.70;28.90;;;;;;5079802;28;20279;-81
2022/06/02 14:03:33;;;;;;;4.88;2.50;;;27.90;28.60;;;;;;5080063;28;20634;-79
2022/06/02 14:06:12;;;;;;;3.67;2.60;;;28.20;28.80;;;;;;4977914;28;20265;-77
2022/06/02 14:09:00;;;;;;;2.63;2.40;;;28.40;28.20;;;;;;4976463;28;20974;-79
2022/06/02 14:11:38;;;;;;;2.88;2.42;;;28.90;27.30;;;;;;5046336;28;20312;-80
2022/06/02 14:14:35;;;;;;;4.00;2.58;;;28.90;27.30;;;;;;5077542;28;20194;-80
2022/06/02 14:17:19;;;;;;;3.50;2.35;;;28.70;27.80;;;;;;5078102;28;20187;-77
2022/06/02 14:20:32;;;;;;;2.55;2.35;;;28.40;28.00;;;;;;5079072;28;20214;-79
2022/06/02 14:23:19;;;;;;;3.65;2.60;;;28.80;27.70;;;;;;5055744;28;20245;-80
2022/06/02 14:26:20;;;;;;;3.45;2.97;;;29.30;27.20;;;;;;5078102;28;20183;-79
2022/06/02 14:28:52;;;;;;;2.72;2.53;;;29.20;27.20;;;;;;5059999;28;20175;-77
2022/06/02 14:31:49;;;;;;;4.25;2.72;;;29.80;26.90;;;;;;5079292;28;20200;-79
2022/06/02 14:34:40;;;;;;;2.78;2.50;;;29.50;27.00;;;;;;5061062;28;20201;-79
2022/06/02 14:37:13;;;;;;;3.05;2.13;;;29.10;27.80;;;;;;5078997;28;20199;-78
2022/06/02 14:39:53;;;;;;;2.60;2.40;;;29.40;27.30;;;;;;5059314;28;20195;-78